sensor_id;sensor_type;location;lat;lon;timestamp;temperature;humidity
81366;DHT22;70822;51.990;22.766;2023-11-22T00:14:59;-2.70;83.60
81366;DHT22;70822;51.990;22.766;2023-11-22T00:30:05;-2.70;83.50
81366;DHT22;70822;51.990;22.766;2023-11-22T00:45:12;-2.90;83.50
81366;DHT22;70822;51.990;22.766;2023-11-22T01:00:18;-2.80;83.50
81366;DHT22;70822;51.990;22.766;2023-11-22T01:15:23;-2.70;83.40
81366;DHT22;70822;51.990;22.766;2023-11-22T01:30:29;-2.80;83.60
81366;DHT22;70822;51.990;22.766;2023-11-22T01:45:34;-2.90;83.50
81366;DHT22;70822;51.990;22.766;2023-11-22T02:00:48;-2.90;83.30
81366;DHT22;70822;51.990;22.766;2023-11-22T02:15:53;-2.90;83.30
81366;DHT22;70822;51.990;22.766;2023-11-22T02:31:00;-2.70;83.50
81366;DHT22;70822;51.990;22.766;2023-11-22T02:46:04;-3.10;83.10
81366;DHT22;70822;51.990;22.766;2023-11-22T03:01:10;-3.10;83.00
81366;DHT22;70822;51.990;22.766;2023-11-22T03:16:15;-3.10;83.00
81366;DHT22;70822;51.990;22.766;2023-11-22T03:31:21;-3.40;82.70
81366;DHT22;70822;51.990;22.766;2023-11-22T03:46:26;-3.40;82.10
81366;DHT22;70822;51.990;22.766;2023-11-22T04:01:31;-3.50;81.90
81366;DHT22;70822;51.990;22.766;2023-11-22T04:16:35;-3.60;81.80
81366;DHT22;70822;51.990;22.766;2023-11-22T04:31:41;-3.70;81.60
81366;DHT22;70822;51.990;22.766;2023-11-22T04:46:46;-4.10;81.80
81366;DHT22;70822;51.990;22.766;2023-11-22T05:01:50;-4.50;81.60
81366;DHT22;70822;51.990;22.766;2023-11-22T05:16:55;-4.70;81.70
81366;DHT22;70822;51.990;22.766;2023-11-22T05:32:03;-4.90;81.50
81366;DHT22;70822;51.990;22.766;2023-11-22T05:47:08;-5.00;81.80
81366;DHT22;70822;51.990;22.766;2023-11-22T06:02:13;-5.10;82.00
81366;DHT22;70822;51.990;22.766;2023-11-22T06:17:18;-5.10;81.60
81366;DHT22;70822;51.990;22.766;2023-11-22T06:32:23;-5.50;81.80
81366;DHT22;70822;51.990;22.766;2023-11-22T06:47:29;-5.30;82.00
81366;DHT22;70822;51.990;22.766;2023-11-22T07:02:34;-5.60;81.10
81366;DHT22;70822;51.990;22.766;2023-11-22T07:17:41;-5.80;81.50
81366;DHT22;70822;51.990;22.766;2023-11-22T07:32:46;-5.00;82.10
81366;DHT22;70822;51.990;22.766;2023-11-22T07:47:51;-4.50;79.70
81366;DHT22;70822;51.990;22.766;2023-11-22T08:02:57;-3.80;78.80
81366;DHT22;70822;51.990;22.766;2023-11-22T08:18:02;-3.80;74.10
81366;DHT22;70822;51.990;22.766;2023-11-22T08:33:07;-3.70;74.30
81366;DHT22;70822;51.990;22.766;2023-11-22T08:48:12;-3.30;75.10
81366;DHT22;70822;51.990;22.766;2023-11-22T09:03:19;-2.60;73.60
81366;DHT22;70822;51.990;22.766;2023-11-22T09:18:24;-3.30;73.60
81366;DHT22;70822;51.990;22.766;2023-11-22T09:33:29;-3.30;73.20
81366;DHT22;70822;51.990;22.766;2023-11-22T09:48:34;-2.90;74.00
81366;DHT22;70822;51.990;22.766;2023-11-22T10:03:42;-2.60;74.40
81366;DHT22;70822;51.990;22.766;2023-11-22T10:18:47;-1.70;74.40
81366;DHT22;70822;51.990;22.766;2023-11-22T10:33:53;-1.10;73.80
81366;DHT22;70822;51.990;22.766;2023-11-22T10:48:58;-0.90;72.80
81366;DHT22;70822;51.990;22.766;2023-11-22T11:04:09;-1.30;72.40
81366;DHT22;70822;51.990;22.766;2023-11-22T11:19:16;-0.90;72.30
81366;DHT22;70822;51.990;22.766;2023-11-22T11:34:26;-0.30;73.00
81366;DHT22;70822;51.990;22.766;2023-11-22T11:49:33;-0.60;73.30
81366;DHT22;70822;51.990;22.766;2023-11-22T12:04:41;0.00;72.90
81366;DHT22;70822;51.990;22.766;2023-11-22T12:19:48;0.00;72.80
81366;DHT22;70822;51.990;22.766;2023-11-22T12:34:53;0.10;72.90
81366;DHT22;70822;51.990;22.766;2023-11-22T12:49:58;0.10;73.30
81366;DHT22;70822;51.990;22.766;2023-11-22T13:05:04;0.00;73.50
81366;DHT22;70822;51.990;22.766;2023-11-22T13:20:11;-0.60;74.00
81366;DHT22;70822;51.990;22.766;2023-11-22T13:35:20;-0.70;74.60
81366;DHT22;70822;51.990;22.766;2023-11-22T13:50:26;-1.20;75.20
81366;DHT22;70822;51.990;22.766;2023-11-22T14:05:33;-1.70;75.50
81366;DHT22;70822;51.990;22.766;2023-11-22T14:20:39;-1.90;75.80
81366;DHT22;70822;51.990;22.766;2023-11-22T14:35:44;-2.20;76.10
81366;DHT22;70822;51.990;22.766;2023-11-22T14:50:49;-2.80;76.20
81366;DHT22;70822;51.990;22.766;2023-11-22T15:05:54;-3.10;76.40
81366;DHT22;70822;51.990;22.766;2023-11-22T15:20:59;-3.80;76.40
81366;DHT22;70822;51.990;22.766;2023-11-22T15:36:06;-4.00;77.10
81366;DHT22;70822;51.990;22.766;2023-11-22T15:51:11;-4.20;77.40
81366;DHT22;70822;51.990;22.766;2023-11-22T16:06:16;-4.70;77.30
81366;DHT22;70822;51.990;22.766;2023-11-22T16:21:23;-5.00;77.40
81366;DHT22;70822;51.990;22.766;2023-11-22T16:36:29;-5.10;77.90
81366;DHT22;70822;51.990;22.766;2023-11-22T16:51:34;-5.30;77.90
81366;DHT22;70822;51.990;22.766;2023-11-22T17:06:39;-5.60;77.90
81366;DHT22;70822;51.990;22.766;2023-11-22T17:21:47;-5.80;78.30
81366;DHT22;70822;51.990;22.766;2023-11-22T17:36:53;-5.60;78.70
81366;DHT22;70822;51.990;22.766;2023-11-22T17:51:58;-5.60;78.70
81366;DHT22;70822;51.990;22.766;2023-11-22T18:07:03;-6.20;78.90
81366;DHT22;70822;51.990;22.766;2023-11-22T18:22:16;-6.20;79.20
81366;DHT22;70822;51.990;22.766;2023-11-22T18:37:21;-6.20;79.10
81366;DHT22;70822;51.990;22.766;2023-11-22T18:52:26;-6.10;79.40
81366;DHT22;70822;51.990;22.766;2023-11-22T19:07:32;-6.00;79.50
81366;DHT22;70822;51.990;22.766;2023-11-22T19:22:38;-5.80;79.30
81366;DHT22;70822;51.990;22.766;2023-11-22T19:37:45;-5.60;79.80
81366;DHT22;70822;51.990;22.766;2023-11-22T19:52:51;-5.20;80.00
81366;DHT22;70822;51.990;22.766;2023-11-22T20:07:56;-5.20;79.90
81366;DHT22;70822;51.990;22.766;2023-11-22T20:23:02;-4.90;79.90
81366;DHT22;70822;51.990;22.766;2023-11-22T20:38:10;-5.00;80.00
81366;DHT22;70822;51.990;22.766;2023-11-22T20:53:15;-4.80;80.00
81366;DHT22;70822;51.990;22.766;2023-11-22T21:08:20;-4.70;79.90
81366;DHT22;70822;51.990;22.766;2023-11-22T21:23:30;-4.50;80.00
81366;DHT22;70822;51.990;22.766;2023-11-22T21:38:35;-4.30;79.90
81366;DHT22;70822;51.990;22.766;2023-11-22T21:53:40;-4.20;79.80
81366;DHT22;70822;51.990;22.766;2023-11-22T22:08:46;-4.00;79.80
81366;DHT22;70822;51.990;22.766;2023-11-22T22:23:56;-4.10;79.90
81366;DHT22;70822;51.990;22.766;2023-11-22T22:39:01;-4.30;79.50
81366;DHT22;70822;51.990;22.766;2023-11-22T22:54:08;-4.60;79.60
81366;DHT22;70822;51.990;22.766;2023-11-22T23:09:13;-4.80;80.10
81366;DHT22;70822;51.990;22.766;2023-11-22T23:24:17;-4.80;80.20
81366;DHT22;70822;51.990;22.766;2023-11-22T23:39:24;-4.90;80.30
81366;DHT22;70822;51.990;22.766;2023-11-22T23:54:30;-4.80;80.70
